Time;durP1;ratioP1;P1;durP2;ratioP2;P2;SDS_P1;SDS_P2;PMS_P1;PMS_P2;Temp;Humidity;BMP_temperature;BMP_pressure;BME280_temperature;BME280_humidity;BME280_pressure;Samples;Min_cycle;Max_cycle;Signal;HPM_P1;HPM_P2
2023/07/25 00:00:53;;;;;;;6.25;5.38;;;23.20;71.20;;;;;;5092307;28;20179;-76
2023/07/25 00:03:19;;;;;;;10.10;5.72;;;23.30;70.70;;;;;;5089073;28;20189;-75
2023/07/25 00:05:45;;;;;;;8.70;5.32;;;23.20;71.80;;;;;;5090659;28;20182;-76
2023/07/25 00:08:10;;;;;;;7.18;4.82;;;23.20;71.60;;;;;;5090900;28;20864;-76
2023/07/25 00:10:36;;;;;;;6.63;5.03;;;23.20;70.70;;;;;;5086048;28;20231;-75
2023/07/25 00:13:02;;;;;;;8.77;5.65;;;23.30;70.90;;;;;;5092788;28;20254;-76
2023/07/25 00:15:27;;;;;;;7.50;5.35;;;23.30;71.00;;;;;;5093171;28;20214;-76
2023/07/25 00:17:53;;;;;;;6.70;4.93;;;23.30;70.70;;;;;;5095496;28;20178;-75
2023/07/25 00:20:18;;;;;;;5.95;4.07;;;23.30;71.10;;;;;;5089643;28;20245;-75
2023/07/25 00:22:44;;;;;;;5.38;4.55;;;23.30;71.40;;;;;;5092977;28;20181;-75
2023/07/25 00:25:10;;;;;;;6.82;4.57;;;23.30;71.30;;;;;;5083447;28;20172;-76
2023/07/25 00:27:36;;;;;;;7.25;4.90;;;23.30;71.00;;;;;;5092964;28;20671;-76
2023/07/25 00:30:03;;;;;;;6.47;5.15;;;23.30;71.20;;;;;;5089430;28;20178;-76
2023/07/25 00:32:29;;;;;;;6.22;4.50;;;23.30;71.10;;;;;;5086656;28;20225;-76
2023/07/25 00:34:55;;;;;;;6.65;4.95;;;23.20;71.10;;;;;;5087668;28;20194;-76
2023/07/25 00:37:21;;;;;;;8.35;4.97;;;23.20;71.50;;;;;;5093478;28;20595;-75
2023/07/25 00:39:46;;;;;;;8.23;5.05;;;23.20;71.70;;;;;;5089663;28;21349;-75
2023/07/25 00:42:12;;;;;;;6.53;4.97;;;23.20;71.90;;;;;;5088159;28;20235;-76
2023/07/25 00:44:37;;;;;;;10.07;5.47;;;23.10;71.80;;;;;;5091165;28;21302;-76
2023/07/25 00:47:03;;;;;;;9.15;5.25;;;23.10;72.00;;;;;;5086358;28;20792;-76
2023/07/25 00:49:30;;;;;;;7.10;5.03;;;23.10;72.10;;;;;;5090581;28;20182;-76
2023/07/25 00:51:56;;;;;;;8.32;5.10;;;23.10;72.00;;;;;;5086957;28;20593;-75
2023/07/25 00:54:22;;;;;;;6.50;5.18;;;23.00;72.00;;;;;;5087815;28;20182;-76
2023/07/25 00:56:48;;;;;;;5.95;4.53;;;23.00;71.90;;;;;;5089251;28;20217;-75
2023/07/25 00:59:14;;;;;;;5.43;4.63;;;23.00;72.10;;;;;;5084660;28;20178;-76
2023/07/25 01:01:39;;;;;;;6.03;5.15;;;23.00;72.20;;;;;;5087205;28;20205;-76
2023/07/25 01:04:05;;;;;;;11.25;4.95;;;23.00;72.10;;;;;;5089361;28;20257;-76
2023/07/25 01:06:31;;;;;;;6.68;5.15;;;22.90;72.10;;;;;;5086015;28;20656;-76
2023/07/25 01:08:57;;;;;;;6.32;5.20;;;22.90;72.00;;;;;;5087396;28;20635;-76
2023/07/25 01:11:23;;;;;;;7.80;5.32;;;22.90;72.30;;;;;;5087283;28;20266;-75
2023/07/25 01:13:50;;;;;;;8.38;4.25;;;22.90;72.20;;;;;;5084185;28;20210;-76
2023/07/25 01:16:23;;;;;;;7.55;4.68;;;22.80;72.50;;;;;;5085846;28;20183;-76
2023/07/25 01:18:50;;;;;;;5.80;4.55;;;22.80;72.20;;;;;;5090052;28;20191;-76
2023/07/25 01:21:15;;;;;;;5.28;4.72;;;22.80;72.60;;;;;;5085143;28;20261;-76
2023/07/25 01:23:42;;;;;;;7.25;5.03;;;22.80;72.80;;;;;;5089824;28;20253;-75
2023/07/25 01:26:08;;;;;;;6.25;4.80;;;22.70;73.00;;;;;;5091185;28;20171;-76
2023/07/25 01:28:34;;;;;;;4.95;4.53;;;22.70;72.80;;;;;;5081327;28;20235;-76
2023/07/25 01:30:59;;;;;;;6.13;4.35;;;22.70;72.90;;;;;;5086388;28;20172;-76
2023/07/25 01:33:25;;;;;;;9.27;5.28;;;22.70;73.10;;;;;;5087590;28;20214;-76
2023/07/25 01:35:51;;;;;;;5.43;4.93;;;22.60;73.40;;;;;;5092771;28;20186;-76
2023/07/25 01:38:16;;;;;;;5.40;4.78;;;22.60;73.60;;;;;;5091310;28;20212;-76
2023/07/25 01:40:42;;;;;;;6.63;4.68;;;22.60;73.60;;;;;;5091505;28;20182;-76
2023/07/25 01:43:08;;;;;;;6.15;5.32;;;22.60;73.80;;;;;;5090423;28;20189;-75
2023/07/25 01:45:35;;;;;;;5.47;4.72;;;22.60;74.10;;;;;;5090194;28;20266;-76
2023/07/25 01:48:01;;;;;;;6.40;5.28;;;22.50;74.20;;;;;;5093330;28;20179;-76
2023/07/25 01:50:27;;;;;;;5.78;5.07;;;22.50;74.40;;;;;;5093265;28;20178;-76
2023/07/25 01:52:53;;;;;;;6.15;5.03;;;22.50;74.50;;;;;;5089907;28;20221;-76
2023/07/25 01:55:19;;;;;;;10.07;5.50;;;22.50;74.70;;;;;;5090183;28;20656;-76
2023/07/25 01:57:44;;;;;;;6.20;5.22;;;22.50;74.80;;;;;;5087007;28;20178;-76
2023/07/25 02:00:11;;;;;;;7.07;4.88;;;22.40;74.90;;;;;;5093010;28;20172;-75
2023/07/25 02:02:36;;;;;;;5.30;4.82;;;22.40;75.10;;;;;;5089045;28;20202;-75
2023/07/25 02:05:02;;;;;;;6.05;4.68;;;22.40;75.20;;;;;;5087443;28;20272;-76
2023/07/25 02:07:28;;;;;;;5.30;4.80;;;22.40;75.20;;;;;;5092084;28;20193;-76
2023/07/25 02:09:53;;;;;;;6.55;4.95;;;22.40;75.10;;;;;;5090155;28;20186;-76
2023/07/25 02:12:19;;;;;;;6.93;4.72;;;22.40;75.20;;;;;;5091428;28;20214;-76
2023/07/25 02:14:45;;;;;;;9.25;4.97;;;22.30;75.20;;;;;;5093690;28;20174;-76
2023/07/25 02:17:10;;;;;;;8.07;5.20;;;22.20;75.50;;;;;;5090413;28;20261;-76
2023/07/25 02:19:37;;;;;;;6.28;5.25;;;22.20;75.70;;;;;;5096173;28;20214;-76
2023/07/25 02:22:04;;;;;;;5.82;4.78;;;22.10;75.60;;;;;;5091185;28;20269;-76
2023/07/25 02:24:29;;;;;;;6.95;5.35;;;22.10;75.70;;;;;;5090462;28;20186;-76
2023/07/25 02:26:55;;;;;;;7.07;4.15;;;22.10;75.80;;;;;;5091788;28;20197;-77
2023/07/25 02:29:21;;;;;;;5.80;4.93;;;22.00;76.00;;;;;;5093338;28;20171;-76
2023/07/25 02:31:46;;;;;;;10.32;5.97;;;22.00;75.90;;;;;;5090919;28;20183;-76
2023/07/25 02:34:12;;;;;;;11.88;4.88;;;22.00;76.10;;;;;;5095595;28;20209;-76
2023/07/25 02:36:38;;;;;;;7.22;5.00;;;21.90;76.20;;;;;;5088848;28;20178;-77
2023/07/25 02:39:03;;;;;;;10.40;5.03;;;21.90;76.20;;;;;;5092513;28;20179;-75
2023/07/25 02:41:29;;;;;;;4.90;4.50;;;21.90;76.50;;;;;;5089809;28;20805;-75
2023/07/25 02:43:55;;;;;;;10.43;5.00;;;21.80;76.60;;;;;;5091088;28;20214;-76
2023/07/25 02:46:20;;;;;;;5.05;4.55;;;21.80;76.70;;;;;;5087104;28;20178;-76
2023/07/25 02:48:46;;;;;;;5.53;4.55;;;21.80;76.50;;;;;;5092506;28;20174;-76
2023/07/25 02:51:12;;;;;;;10.20;4.93;;;21.70;76.60;;;;;;5090748;28;20182;-76
2023/07/25 02:53:38;;;;;;;6.43;5.05;;;21.70;76.80;;;;;;5088245;28;20251;-75
2023/07/25 02:56:04;;;;;;;4.32;3.80;;;21.70;76.90;;;;;;5091326;28;20217;-76
2023/07/25 02:58:29;;;;;;;4.40;4.00;;;21.70;77.00;;;;;;5087184;28;20201;-77
2023/07/25 03:00:55;;;;;;;5.70;4.47;;;21.60;76.90;;;;;;5089521;28;20719;-76
2023/07/25 03:03:21;;;;;;;4.88;4.43;;;21.60;77.20;;;;;;5086579;28;20234;-77
2023/07/25 03:05:46;;;;;;;11.43;3.97;;;21.60;77.40;;;;;;5088558;28;20184;-77
2023/07/25 03:08:12;;;;;;;6.18;4.35;;;21.60;77.70;;;;;;5091012;28;20187;-75
2023/07/25 03:10:37;;;;;;;6.53;4.55;;;21.60;77.60;;;;;;5084984;28;20181;-75
2023/07/25 03:13:03;;;;;;;6.95;5.38;;;21.60;77.90;;;;;;5090993;28;20217;-75
2023/07/25 03:15:29;;;;;;;6.38;4.85;;;21.50;77.70;;;;;;5086225;28;20277;-75
2023/07/25 03:17:55;;;;;;;5.22;4.72;;;21.50;78.00;;;;;;5084683;28;20652;-75
2023/07/25 03:20:20;;;;;;;9.27;4.70;;;21.50;78.10;;;;;;5088966;28;20184;-75
2023/07/25 03:22:46;;;;;;;5.25;4.45;;;21.50;78.20;;;;;;5092943;28;20182;-76
2023/07/25 03:25:12;;;;;;;6.28;4.43;;;21.50;78.20;;;;;;5085766;28;20885;-75
2023/07/25 03:27:38;;;;;;;7.32;4.47;;;21.40;78.10;;;;;;5092389;28;20187;-75
2023/07/25 03:30:04;;;;;;;7.80;4.38;;;21.40;78.30;;;;;;5088540;28;20551;-76
2023/07/25 03:32:29;;;;;;;4.15;3.75;;;21.40;78.30;;;;;;5088869;28;20218;-75
2023/07/25 03:34:56;;;;;;;5.78;4.18;;;21.40;78.40;;;;;;5091089;28;20563;-75
2023/07/25 03:37:21;;;;;;;14.70;4.38;;;21.40;78.20;;;;;;5090421;28;20173;-75
2023/07/25 03:39:47;;;;;;;6.85;4.82;;;21.40;78.20;;;;;;5085859;28;20615;-75
2023/07/25 03:42:12;;;;;;;4.30;3.90;;;21.40;78.20;;;;;;5089927;28;20619;-75
2023/07/25 03:44:38;;;;;;;4.60;4.20;;;21.40;78.20;;;;;;5087827;28;20186;-75
2023/07/25 03:47:04;;;;;;;4.70;4.25;;;21.40;78.10;;;;;;5091859;28;20175;-76
2023/07/25 03:49:30;;;;;;;5.85;4.18;;;21.40;78.30;;;;;;5090790;28;20687;-76
2023/07/25 03:51:55;;;;;;;6.75;4.78;;;21.40;78.50;;;;;;5092280;28;20202;-75
2023/07/25 03:54:23;;;;;;;6.75;4.60;;;21.40;78.80;;;;;;5089968;28;20186;-74
2023/07/25 03:56:50;;;;;;;5.25;4.43;;;21.40;79.20;;;;;;5087409;28;20190;-75
2023/07/25 03:59:17;;;;;;;8.43;4.55;;;21.40;79.10;;;;;;5089345;28;20185;-75
2023/07/25 04:01:43;;;;;;;5.18;4.43;;;21.40;79.00;;;;;;5088851;28;20740;-75
2023/07/25 04:04:08;;;;;;;5.53;4.90;;;21.40;79.10;;;;;;5092105;28;20181;-75
2023/07/25 04:06:34;;;;;;;11.25;4.82;;;21.50;79.30;;;;;;5087611;28;20195;-75
2023/07/25 04:09:00;;;;;;;5.72;4.47;;;21.50;79.10;;;;;;5089546;28;20181;-75
2023/07/25 04:11:25;;;;;;;6.25;4.53;;;21.50;79.10;;;;;;5090365;28;20225;-74
2023/07/25 04:13:51;;;;;;;5.57;4.57;;;21.50;79.20;;;;;;5089293;28;20271;-75
2023/07/25 04:16:17;;;;;;;7.80;4.63;;;21.60;79.40;;;;;;5086576;28;20725;-75
2023/07/25 04:18:42;;;;;;;5.80;4.55;;;21.60;79.20;;;;;;5087723;28;20817;-75
2023/07/25 04:21:08;;;;;;;5.72;5.20;;;21.60;79.20;;;;;;5089353;28;20319;-75
2023/07/25 04:23:33;;;;;;;10.10;5.20;;;21.70;79.00;;;;;;5089434;28;20233;-76
2023/07/25 04:25:59;;;;;;;7.88;5.10;;;21.70;78.90;;;;;;5088198;28;20182;-76
2023/07/25 04:28:25;;;;;;;5.40;4.80;;;21.70;78.90;;;;;;5085572;28;20820;-77
2023/07/25 04:30:51;;;;;;;9.25;5.35;;;21.80;78.70;;;;;;5090834;28;20186;-76
2023/07/25 04:33:17;;;;;;;7.20;5.00;;;21.80;79.00;;;;;;5091075;28;20257;-76
2023/07/25 04:35:45;;;;;;;9.80;5.25;;;21.80;78.60;;;;;;5089585;28;20206;-76
2023/07/25 04:38:12;;;;;;;9.10;5.15;;;21.90;78.80;;;;;;5091312;28;20633;-76
2023/07/25 04:40:38;;;;;;;6.00;4.90;;;21.90;78.60;;;;;;5090635;28;20611;-75
2023/07/25 04:43:04;;;;;;;5.18;4.70;;;21.90;79.30;;;;;;5089306;28;20178;-75
2023/07/25 04:45:29;;;;;;;13.10;5.85;;;22.00;78.90;;;;;;5076619;28;20313;-75
2023/07/25 04:47:55;;;;;;;5.57;4.70;;;22.00;79.00;;;;;;5081993;28;20209;-75
2023/07/25 04:50:21;;;;;;;9.38;5.65;;;22.10;79.20;;;;;;5085367;28;20174;-76
2023/07/25 04:52:46;;;;;;;6.13;5.53;;;22.10;79.40;;;;;;5085314;28;20302;-75
2023/07/25 04:55:12;;;;;;;5.22;4.80;;;22.10;79.50;;;;;;5087451;28;20235;-76
2023/07/25 04:57:38;;;;;;;7.32;4.95;;;22.20;79.10;;;;;;5089648;28;20178;-76
2023/07/25 05:00:05;;;;;;;3.67;3.38;;;22.20;79.10;;;;;;5087319;28;20185;-75
2023/07/25 05:02:31;;;;;;;7.18;5.00;;;22.20;78.70;;;;;;5089949;28;20758;-75
2023/07/25 05:04:57;;;;;;;10.20;4.78;;;22.30;79.00;;;;;;5088182;28;20257;-75
2023/07/25 05:07:22;;;;;;;3.88;3.58;;;22.30;78.20;;;;;;5088838;28;20183;-75
2023/07/25 05:09:48;;;;;;;6.13;4.32;;;22.30;78.60;;;;;;5089478;28;20182;-76
2023/07/25 05:12:14;;;;;;;4.95;4.20;;;22.40;78.20;;;;;;5087637;28;20201;-75
2023/07/25 05:14:40;;;;;;;4.30;3.97;;;22.40;78.60;;;;;;5087136;28;20709;-74
2023/07/25 05:17:06;;;;;;;9.10;5.07;;;22.40;78.30;;;;;;5086958;28;21248;-75
2023/07/25 05:19:32;;;;;;;8.88;5.82;;;22.50;78.00;;;;;;5087308;28;20174;-76
2023/07/25 05:21:58;;;;;;;5.57;4.30;;;22.50;77.50;;;;;;5087833;28;20178;-76
2023/07/25 05:24:24;;;;;;;5.93;4.47;;;22.60;77.60;;;;;;5085223;28;20211;-76
2023/07/25 05:26:50;;;;;;;5.80;4.47;;;22.60;77.30;;;;;;5083559;28;20235;-75
2023/07/25 05:29:15;;;;;;;7.20;4.95;;;22.70;77.40;;;;;;5084972;28;20183;-75
2023/07/25 05:31:41;;;;;;;9.10;5.13;;;22.70;77.30;;;;;;5086530;28;20189;-76
2023/07/25 05:34:07;;;;;;;8.07;4.93;;;22.80;77.30;;;;;;5089672;28;20186;-76
2023/07/25 05:36:32;;;;;;;5.80;4.43;;;22.80;77.30;;;;;;5087154;28;20178;-76
2023/07/25 05:38:58;;;;;;;5.22;4.72;;;22.90;77.50;;;;;;5085182;28;20170;-75
2023/07/25 05:41:24;;;;;;;6.03;4.53;;;22.90;77.40;;;;;;5085837;28;20178;-75
2023/07/25 05:43:49;;;;;;;5.55;4.32;;;23.00;77.20;;;;;;5085759;28;20182;-75
2023/07/25 05:46:15;;;;;;;9.57;4.68;;;23.00;77.50;;;;;;5088435;28;20185;-74
2023/07/25 05:48:41;;;;;;;4.47;4.03;;;23.10;77.10;;;;;;5085770;28;20702;-75
2023/07/25 05:51:06;;;;;;;9.10;5.00;;;23.10;77.20;;;;;;5087556;28;20227;-75
2023/07/25 05:53:32;;;;;;;9.70;5.10;;;23.10;78.00;;;;;;5087633;28;20206;-75
2023/07/25 05:55:57;;;;;;;6.53;4.88;;;23.10;76.80;;;;;;5088854;28;20182;-75
2023/07/25 05:58:23;;;;;;;12.00;5.40;;;23.20;76.60;;;;;;5088422;28;20186;-75
2023/07/25 06:00:49;;;;;;;4.60;4.15;;;23.30;77.50;;;;;;5087647;28;20237;-75
2023/07/25 06:03:16;;;;;;;6.65;3.85;;;23.30;76.40;;;;;;5082721;28;20186;-75
2023/07/25 06:05:42;;;;;;;4.82;4.32;;;23.40;75.90;;;;;;5085925;28;20611;-75
2023/07/25 06:08:09;;;;;;;8.45;4.05;;;23.50;75.60;;;;;;5087498;28;20200;-75
2023/07/25 06:10:35;;;;;;;6.55;4.57;;;23.50;75.80;;;;;;5081487;28;20261;-75
2023/07/25 06:13:04;;;;;;;6.18;4.60;;;23.60;74.90;;;;;;5085480;28;20214;-74
2023/07/25 06:15:30;;;;;;;7.88;4.65;;;23.60;75.70;;;;;;5086742;28;20255;-75
2023/07/25 06:17:55;;;;;;;4.78;4.20;;;23.70;75.70;;;;;;5091156;28;20182;-75
2023/07/25 06:20:21;;;;;;;5.25;4.07;;;23.80;74.80;;;;;;5094844;28;20610;-75
2023/07/25 06:22:47;;;;;;;6.10;4.53;;;23.90;74.80;;;;;;5091640;28;20183;-76
2023/07/25 06:25:15;;;;;;;5.05;4.25;;;23.90;75.00;;;;;;5094605;28;20185;-75
2023/07/25 06:27:41;;;;;;;5.47;4.05;;;24.00;76.00;;;;;;5089401;28;20225;-76
2023/07/25 06:30:07;;;;;;;8.10;4.70;;;24.10;74.80;;;;;;5088241;28;20178;-76
2023/07/25 06:32:34;;;;;;;6.60;4.45;;;24.20;74.80;;;;;;5092562;28;20214;-76
2023/07/25 06:35:00;;;;;;;8.63;5.10;;;24.20;74.20;;;;;;5087170;28;20174;-75
2023/07/25 06:37:26;;;;;;;9.00;4.88;;;24.30;74.30;;;;;;5092374;28;20257;-75
2023/07/25 06:39:51;;;;;;;5.65;4.88;;;24.40;73.90;;;;;;5090406;28;20620;-75
2023/07/25 06:42:17;;;;;;;4.93;4.40;;;24.50;74.20;;;;;;5092013;28;20185;-77
2023/07/25 06:44:43;;;;;;;7.03;4.05;;;24.60;73.60;;;;;;5089175;28;20182;-76
2023/07/25 06:47:09;;;;;;;4.50;4.10;;;24.60;73.40;;;;;;5092728;28;20186;-76
2023/07/25 06:49:34;;;;;;;4.97;4.50;;;24.70;73.20;;;;;;5083257;28;20186;-75
2023/07/25 06:52:00;;;;;;;5.50;5.03;;;24.80;73.00;;;;;;5091675;28;20201;-77
2023/07/25 06:54:26;;;;;;;7.50;4.30;;;25.00;73.30;;;;;;5090306;28;20182;-76
2023/07/25 06:56:52;;;;;;;5.53;4.88;;;25.00;73.30;;;;;;5084460;28;20175;-76
2023/07/25 06:59:18;;;;;;;8.05;4.50;;;25.00;72.60;;;;;;5091778;28;20175;-76
2023/07/25 07:01:44;;;;;;;4.90;4.30;;;25.10;72.30;;;;;;5089031;28;20185;-76
2023/07/25 07:04:09;;;;;;;5.50;4.88;;;25.20;72.20;;;;;;5092004;28;20235;-76
2023/07/25 07:06:36;;;;;;;7.15;4.50;;;25.20;71.90;;;;;;5090641;28;20263;-76
2023/07/25 07:09:02;;;;;;;4.53;4.07;;;;;;;;;;5090951;28;20190;-76
2023/07/25 07:11:28;;;;;;;8.80;5.25;;;25.40;72.10;;;;;;5094021;28;20174;-76
2023/07/25 07:13:53;;;;;;;4.72;4.25;;;25.50;71.90;;;;;;5089820;28;20687;-76
2023/07/25 07:16:19;;;;;;;7.57;4.75;;;25.60;71.20;;;;;;5092597;28;20174;-75
2023/07/25 07:18:45;;;;;;;7.78;4.38;;;25.60;71.20;;;;;;5090628;28;20319;-75
2023/07/25 07:21:11;;;;;;;6.00;4.97;;;25.70;71.00;;;;;;5091924;28;20185;-74
2023/07/25 07:23:36;;;;;;;7.93;4.90;;;25.80;70.60;;;;;;5092725;28;20182;-75
2023/07/25 07:26:02;;;;;;;5.20;4.65;;;25.90;70.00;;;;;;5090781;28;20189;-74
2023/07/25 07:28:29;;;;;;;5.30;4.60;;;25.90;70.40;;;;;;5083631;28;20194;-76
2023/07/25 07:30:55;;;;;;;9.70;5.68;;;26.00;69.60;;;;;;5083959;28;20174;-76
2023/07/25 07:33:21;;;;;;;7.03;4.90;;;26.10;70.00;;;;;;5090447;28;20267;-76
2023/07/25 07:35:47;;;;;;;5.40;4.55;;;26.10;70.10;;;;;;5085928;28;20259;-74
2023/07/25 07:38:12;;;;;;;8.82;4.90;;;26.20;69.60;;;;;;5088232;28;20265;-76
2023/07/25 07:40:38;;;;;;;7.68;5.32;;;26.30;68.10;;;;;;5087963;28;20182;-75
2023/07/25 07:43:04;;;;;;;6.05;4.43;;;26.40;69.60;;;;;;5086841;28;20232;-75
2023/07/25 07:45:33;;;;;;;7.18;4.93;;;26.40;69.00;;;;;;5088737;28;20273;-75
2023/07/25 07:48:00;;;;;;;7.80;5.15;;;26.50;68.00;;;;;;5090673;28;20178;-75
2023/07/25 07:50:28;;;;;;;6.93;5.22;;;26.50;67.10;;;;;;5091444;28;20178;-76
2023/07/25 07:52:54;;;;;;;5.68;4.80;;;26.60;67.60;;;;;;5089946;28;21016;-76
2023/07/25 07:55:19;;;;;;;9.80;4.80;;;26.70;67.70;;;;;;5088406;28;20186;-72
2023/07/25 07:57:46;;;;;;;9.57;5.50;;;26.80;67.90;;;;;;5092859;28;20633;-72
2023/07/25 08:00:14;;;;;;;7.35;4.97;;;26.90;67.70;;;;;;5085586;28;20202;-72
2023/07/25 08:02:41;;;;;;;8.02;4.57;;;27.00;67.40;;;;;;5082317;28;20178;-72
2023/07/25 08:05:07;;;;;;;9.63;4.65;;;27.10;66.60;;;;;;5084446;28;20557;-72
2023/07/25 08:07:33;;;;;;;5.78;4.38;;;27.10;66.50;;;;;;5094168;28;20178;-72
2023/07/25 08:09:58;;;;;;;6.97;4.82;;;27.20;66.70;;;;;;5084240;28;20667;-71
2023/07/25 08:12:24;;;;;;;7.40;4.63;;;27.30;66.20;;;;;;5095974;28;20217;-70
2023/07/25 08:14:50;;;;;;;5.80;4.82;;;27.40;66.00;;;;;;5087498;28;20286;-70
2023/07/25 08:17:15;;;;;;;8.75;5.07;;;27.50;65.90;;;;;;5090874;28;20173;-70
2023/07/25 08:19:41;;;;;;;7.57;4.22;;;27.60;64.40;;;;;;5087172;28;20245;-71
2023/07/25 08:22:09;;;;;;;9.85;4.57;;;27.60;64.30;;;;;;5089325;28;20573;-72
2023/07/25 08:24:34;;;;;;;9.57;4.57;;;27.70;64.60;;;;;;5090537;28;20182;-71
2023/07/25 08:27:00;;;;;;;4.80;4.32;;;27.80;64.80;;;;;;5083131;28;20170;-71
2023/07/25 08:29:26;;;;;;;6.32;4.75;;;27.80;63.60;;;;;;5077452;28;20313;-72
2023/07/25 08:31:52;;;;;;;9.98;4.70;;;27.90;64.10;;;;;;5093926;28;20170;-72
2023/07/25 08:34:19;;;;;;;4.85;3.92;;;28.00;64.60;;;;;;5084353;28;20570;-73
2023/07/25 08:36:44;;;;;;;5.10;4.18;;;28.10;64.20;;;;;;5088858;28;20178;-71
2023/07/25 08:39:10;;;;;;;7.70;4.43;;;28.20;64.80;;;;;;5085518;28;20678;-71
2023/07/25 08:41:42;;;;;;;6.28;4.50;;;28.30;65.10;;;;;;5094673;28;20652;-71
2023/07/25 08:44:12;;;;;;;4.68;4.13;;;28.40;63.50;;;;;;5075367;28;20652;-72
2023/07/25 08:46:45;;;;;;;6.72;4.43;;;28.50;64.00;;;;;;5089230;28;20185;-71
2023/07/25 08:49:16;;;;;;;5.55;4.45;;;28.60;63.90;;;;;;5077720;28;20254;-71
2023/07/25 08:51:43;;;;;;;5.93;4.22;;;28.70;63.70;;;;;;5083381;28;20636;-71
2023/07/25 08:54:29;;;;;;;10.10;4.65;;;29.00;64.30;;;;;;5089056;28;20200;-71
2023/07/25 08:56:55;;;;;;;7.15;3.70;;;29.00;64.40;;;;;;5086840;28;20171;-72
2023/07/25 08:59:22;;;;;;;5.43;4.35;;;29.20;64.00;;;;;;5079609;28;20189;-72
2023/07/25 09:01:48;;;;;;;6.63;4.50;;;29.20;61.90;;;;;;5080146;28;20577;-72
2023/07/25 09:04:17;;;;;;;4.97;4.28;;;29.30;62.30;;;;;;5091016;28;20177;-72
2023/07/25 09:06:44;;;;;;;5.13;4.43;;;;;;;;;;5090689;28;20667;-72
2023/07/25 09:09:10;;;;;;;5.40;3.70;;;;;;;;;;5085624;28;20253;-71
2023/07/25 09:11:36;;;;;;;4.57;3.97;;;;;;;;;;5091096;28;20186;-71
2023/07/25 09:14:02;;;;;;;4.78;3.33;;;29.90;61.00;;;;;;5089494;28;20201;-71
2023/07/25 09:16:28;;;;;;;5.05;3.50;;;;;;;;;;5090732;28;20214;-71
2023/07/25 09:18:54;;;;;;;6.00;4.53;;;;;;;;;;5085559;28;20236;-71
2023/07/25 09:21:19;;;;;;;5.35;4.75;;;30.10;61.40;;;;;;5082066;28;20174;-72
2023/07/25 09:23:54;;;;;;;5.50;4.65;;;30.20;60.70;;;;;;5081217;28;20175;-72
2023/07/25 09:26:21;;;;;;;9.00;4.35;;;30.30;61.40;;;;;;5082401;28;20206;-71
2023/07/25 09:28:52;;;;;;;5.82;4.43;;;30.50;60.60;;;;;;5084270;28;20230;-72
2023/07/25 09:31:19;;;;;;;5.43;4.57;;;30.60;61.80;;;;;;5079389;28;20178;-71
2023/07/25 09:33:50;;;;;;;4.30;3.85;;;30.80;59.00;;;;;;5093137;28;20312;-72
2023/07/25 09:36:16;;;;;;;6.13;4.43;;;31.00;60.40;;;;;;5089294;28;20174;-72
2023/07/25 09:38:53;;;;;;;6.22;3.88;;;31.10;61.10;;;;;;5091072;28;20188;-72
2023/07/25 09:41:23;;;;;;;7.15;4.18;;;31.30;60.10;;;;;;5088157;28;20226;-71
2023/07/25 09:43:52;;;;;;;7.10;4.90;;;31.30;60.10;;;;;;5095255;28;20832;-71
2023/07/25 09:46:19;;;;;;;5.93;4.05;;;31.60;59.10;;;;;;5091653;28;20166;-71
2023/07/25 09:48:46;;;;;;;5.32;4.18;;;31.90;58.70;;;;;;5094389;28;20182;-72
2023/07/25 09:51:12;;;;;;;10.98;4.43;;;31.90;58.70;;;;;;5086450;28;20193;-71
2023/07/25 09:53:42;;;;;;;7.53;4.65;;;32.00;57.90;;;;;;5082853;28;20210;-70
2023/07/25 09:56:09;;;;;;;6.80;4.43;;;32.10;56.90;;;;;;5090707;28;20182;-71
2023/07/25 09:58:35;;;;;;;12.68;5.32;;;32.40;58.40;;;;;;5091557;28;20173;-73
2023/07/25 10:01:02;;;;;;;5.55;4.75;;;32.60;58.20;;;;;;5097447;28;20174;-74
2023/07/25 10:03:29;;;;;;;9.15;5.28;;;32.80;57.60;;;;;;5089055;28;20189;-76
2023/07/25 10:05:56;;;;;;;10.00;5.07;;;33.10;57.30;;;;;;5099706;28;20260;-77
2023/07/25 10:08:26;;;;;;;8.82;5.00;;;33.30;55.70;;;;;;5093027;28;20239;-73
2023/07/25 10:10:55;;;;;;;6.35;4.70;;;33.70;54.60;;;;;;5091658;28;20173;-72
2023/07/25 10:13:21;;;;;;;6.13;4.22;;;33.70;55.20;;;;;;5090386;28;20605;-73
2023/07/25 10:15:47;;;;;;;5.65;4.68;;;33.90;54.90;;;;;;5091124;28;20178;-73
2023/07/25 10:18:21;;;;;;;9.35;5.38;;;34.20;55.00;;;;;;5089386;28;20231;-73
2023/07/25 10:20:52;;;;;;;5.05;4.20;;;34.80;55.60;;;;;;5089907;28;20181;-73
2023/07/25 10:23:19;;;;;;;5.00;3.75;;;35.20;54.10;;;;;;5091535;28;20186;-73
2023/07/25 10:25:45;;;;;;;5.85;4.35;;;35.70;54.10;;;;;;5084553;28;20660;-73
2023/07/25 10:28:12;;;;;;;8.48;4.25;;;36.20;52.60;;;;;;5090521;28;20231;-77
2023/07/25 10:30:48;;;;;;;10.50;5.10;;;36.20;52.60;;;;;;5093760;28;20273;-76
2023/07/25 10:33:15;;;;;;;5.20;4.18;;;37.30;51.30;;;;;;5086494;28;20213;-76
2023/07/25 10:35:54;;;;;;;5.20;4.03;;;37.90;50.70;;;;;;5091591;28;20742;-73
2023/07/25 10:38:33;;;;;;;3.58;3.35;;;38.50;49.00;;;;;;5085880;28;20227;-75
2023/07/25 10:41:13;;;;;;;10.30;6.22;;;38.90;49.70;;;;;;5085248;28;20504;-74
2023/07/25 10:43:55;;;;;;;7.70;4.45;;;39.20;48.70;;;;;;5077049;28;20216;-73
2023/07/25 10:46:34;;;;;;;4.90;4.55;;;40.40;46.90;;;;;;5075743;28;20201;-74
2023/07/25 10:49:17;;;;;;;9.07;4.88;;;40.70;46.90;;;;;;5077964;28;20236;-75
2023/07/25 10:51:49;;;;;;;4.63;4.25;;;41.10;45.90;;;;;;5077920;28;20252;-75
2023/07/25 10:54:17;;;;;;;6.07;3.78;;;41.20;46.10;;;;;;5078905;28;20611;-75
2023/07/25 10:57:08;;;;;;;4.65;4.22;;;41.80;45.80;;;;;;5077161;28;20800;-75
2023/07/25 11:00:04;;;;;;;5.75;4.28;;;42.30;45.80;;;;;;5073666;28;20197;-76
2023/07/25 11:02:34;;;;;;;7.82;4.53;;;42.40;45.40;;;;;;5078063;28;20769;-74
2023/07/25 11:05:12;;;;;;;7.43;4.75;;;42.80;44.00;;;;;;5078294;28;20206;-75
2023/07/25 11:07:58;;;;;;;7.97;4.85;;;43.30;44.20;;;;;;5077849;28;20205;-73
2023/07/25 11:10:27;;;;;;;6.65;4.28;;;43.90;43.10;;;;;;5076497;28;20213;-75
2023/07/25 11:12:55;;;;;;;7.13;4.55;;;44.10;43.10;;;;;;5074025;28;20303;-74
2023/07/25 11:15:21;;;;;;;7.88;4.45;;;44.10;43.90;;;;;;5080215;28;20210;-76
2023/07/25 11:17:48;;;;;;;6.85;4.45;;;44.20;44.00;;;;;;5085927;28;20213;-76
2023/07/25 11:20:22;;;;;;;12.05;4.93;;;44.20;44.00;;;;;;5079191;28;20224;-74
2023/07/25 11:22:52;;;;;;;5.65;4.10;;;44.40;43.20;;;;;;5082146;28;20746;-74
2023/07/25 11:25:18;;;;;;;5.15;3.83;;;44.50;43.60;;;;;;5076829;28;20869;-78
2023/07/25 11:27:46;;;;;;;4.22;3.90;;;44.80;42.80;;;;;;5081743;28;20209;-77
2023/07/25 11:30:16;;;;;;;4.35;4.00;;;45.00;42.90;;;;;;5078781;28;20293;-77
2023/07/25 11:32:47;;;;;;;4.68;4.28;;;44.90;42.50;;;;;;5074292;28;20232;-78
2023/07/25 11:35:13;;;;;;;9.07;4.47;;;45.10;42.10;;;;;;5073832;28;20532;-77
2023/07/25 11:37:38;;;;;;;6.63;4.22;;;45.40;41.80;;;;;;5076756;28;20232;-77
2023/07/25 11:40:16;;;;;;;8.73;3.65;;;45.40;42.60;;;;;;5078646;28;20720;-76
2023/07/25 11:42:45;;;;;;;7.25;3.95;;;45.60;41.90;;;;;;5076449;28;20205;-76
2023/07/25 11:45:11;;;;;;;7.35;3.90;;;45.60;40.80;;;;;;5075251;28;20239;-77
2023/07/25 11:47:42;;;;;;;6.30;3.92;;;45.90;40.00;;;;;;5080004;28;20692;-77
2023/07/25 11:50:09;;;;;;;3.70;3.53;;;46.20;39.50;;;;;;5076535;28;20614;-75
2023/07/25 11:52:37;;;;;;;4.20;3.25;;;46.20;40.30;;;;;;5074981;28;20228;-74
2023/07/25 11:55:04;;;;;;;3.97;3.30;;;46.30;39.20;;;;;;5076115;28;20217;-77
2023/07/25 11:57:30;;;;;;;6.53;3.17;;;46.30;39.30;;;;;;5077679;28;20209;-77
2023/07/25 11:59:56;;;;;;;4.60;3.45;;;46.40;38.80;;;;;;5090049;28;20181;-79
2023/07/25 12:02:26;;;;;;;3.72;3.45;;;46.50;39.50;;;;;;5112093;28;20174;-79
2023/07/25 12:04:52;;;;;;;6.50;4.18;;;46.80;39.20;;;;;;5090713;28;21152;-75
2023/07/25 12:07:18;;;;;;;6.93;3.75;;;47.20;38.90;;;;;;5096323;28;20244;-75
2023/07/25 12:09:54;;;;;;;5.00;3.08;;;47.60;39.10;;;;;;5088244;28;20269;-75
2023/07/25 12:12:21;;;;;;;6.65;3.47;;;47.80;37.00;;;;;;5092583;28;20292;-75
2023/07/25 12:15:01;;;;;;;6.75;3.38;;;47.80;38.70;;;;;;5086566;28;20191;-75
2023/07/25 12:17:43;;;;;;;2.95;2.85;;;48.00;38.00;;;;;;5094651;28;20174;-75
2023/07/25 12:20:16;;;;;;;4.65;2.50;;;48.20;36.10;;;;;;5096505;28;20181;-76
2023/07/25 12:22:42;;;;;;;7.13;2.58;;;47.90;38.60;;;;;;5097247;28;20178;-75
2023/07/25 12:25:08;;;;;;;2.75;2.40;;;47.60;36.90;;;;;;5092114;28;20193;-75
2023/07/25 12:27:34;;;;;;;4.95;2.42;;;47.30;37.20;;;;;;5096273;28;20174;-75
2023/07/25 12:29:59;;;;;;;2.95;2.30;;;46.80;36.40;;;;;;5095035;28;20173;-75
2023/07/25 12:32:25;;;;;;;5.07;2.03;;;46.20;37.00;;;;;;5091052;28;20270;-74
2023/07/25 12:34:51;;;;;;;9.57;2.00;;;45.90;36.90;;;;;;5096913;28;20533;-75
2023/07/25 12:37:16;;;;;;;7.85;2.72;;;45.50;36.90;;;;;;5089853;28;20179;-75
2023/07/25 12:39:42;;;;;;;5.35;2.35;;;45.50;38.70;;;;;;5088179;28;20208;-75
2023/07/25 12:42:08;;;;;;;3.42;2.17;;;45.50;37.70;;;;;;5093851;28;20764;-75
2023/07/25 12:44:34;;;;;;;2.42;2.20;;;45.50;37.70;;;;;;5094308;28;20242;-75
2023/07/25 12:47:00;;;;;;;4.13;2.03;;;45.60;37.40;;;;;;5093676;28;20196;-75